sensor_id;sensor_type;location;lat;lon;timestamp;P1;durP1;ratioP1;P2;durP2;ratioP2
56413;SDS011;42318;48.452;19.526;2022-11-20T00:01:35;8.68;;;4.75;;
56413;SDS011;42318;48.452;19.526;2022-11-20T00:09:06;8.10;;;4.60;;
56413;SDS011;42318;48.452;19.526;2022-11-20T00:16:36;8.93;;;4.60;;
56413;SDS011;42318;48.452;19.526;2022-11-20T00:24:08;6.45;;;4.10;;
56413;SDS011;42318;48.452;19.526;2022-11-20T00:31:40;7.07;;;4.57;;
56413;SDS011;42318;48.452;19.526;2022-11-20T00:39:11;6.47;;;3.90;;
56413;SDS011;42318;48.452;19.526;2022-11-20T00:46:42;7.78;;;4.35;;
56413;SDS011;42318;48.452;19.526;2022-11-20T00:54:12;6.30;;;3.85;;
56413;SDS011;42318;48.452;19.526;2022-11-20T01:01:43;10.65;;;4.00;;
56413;SDS011;42318;48.452;19.526;2022-11-20T01:09:14;6.72;;;3.85;;
56413;SDS011;42318;48.452;19.526;2022-11-20T01:16:46;7.65;;;3.83;;
56413;SDS011;42318;48.452;19.526;2022-11-20T01:24:19;6.05;;;3.97;;
56413;SDS011;42318;48.452;19.526;2022-11-20T01:31:51;7.50;;;4.10;;
56413;SDS011;42318;48.452;19.526;2022-11-20T01:39:24;7.28;;;4.20;;
56413;SDS011;42318;48.452;19.526;2022-11-20T01:46:57;7.72;;;4.32;;
56413;SDS011;42318;48.452;19.526;2022-11-20T01:54:33;7.57;;;3.80;;
56413;SDS011;42318;48.452;19.526;2022-11-20T02:02:07;5.65;;;3.60;;
56413;SDS011;42318;48.452;19.526;2022-11-20T02:09:38;7.53;;;4.25;;
56413;SDS011;42318;48.452;19.526;2022-11-20T02:17:09;6.22;;;3.67;;
56413;SDS011;42318;48.452;19.526;2022-11-20T02:24:39;5.47;;;3.30;;
56413;SDS011;42318;48.452;19.526;2022-11-20T02:32:24;5.80;;;3.70;;
56413;SDS011;42318;48.452;19.526;2022-11-20T02:39:57;7.53;;;4.10;;
56413;SDS011;42318;48.452;19.526;2022-11-20T02:47:28;6.88;;;3.40;;
56413;SDS011;42318;48.452;19.526;2022-11-20T02:54:59;7.10;;;4.05;;
56413;SDS011;42318;48.452;19.526;2022-11-20T03:02:30;6.95;;;3.92;;
56413;SDS011;42318;48.452;19.526;2022-11-20T03:10:01;5.07;;;3.17;;
56413;SDS011;42318;48.452;19.526;2022-11-20T03:17:32;6.78;;;3.88;;
56413;SDS011;42318;48.452;19.526;2022-11-20T03:25:03;6.07;;;3.67;;
56413;SDS011;42318;48.452;19.526;2022-11-20T03:32:34;7.28;;;3.70;;
56413;SDS011;42318;48.452;19.526;2022-11-20T03:40:05;5.45;;;3.75;;
56413;SDS011;42318;48.452;19.526;2022-11-20T03:47:36;6.65;;;3.80;;
56413;SDS011;42318;48.452;19.526;2022-11-20T03:55:07;4.88;;;3.05;;
56413;SDS011;42318;48.452;19.526;2022-11-20T04:02:38;5.90;;;3.10;;
56413;SDS011;42318;48.452;19.526;2022-11-20T04:10:08;6.53;;;3.72;;
56413;SDS011;42318;48.452;19.526;2022-11-20T04:17:40;4.47;;;3.08;;
56413;SDS011;42318;48.452;19.526;2022-11-20T04:25:11;4.72;;;3.10;;
56413;SDS011;42318;48.452;19.526;2022-11-20T04:32:42;4.55;;;3.10;;
56413;SDS011;42318;48.452;19.526;2022-11-20T04:40:13;5.63;;;3.20;;
56413;SDS011;42318;48.452;19.526;2022-11-20T04:47:43;4.72;;;3.22;;
56413;SDS011;42318;48.452;19.526;2022-11-20T04:55:14;4.10;;;2.90;;
56413;SDS011;42318;48.452;19.526;2022-11-20T05:02:45;6.10;;;3.38;;
56413;SDS011;42318;48.452;19.526;2022-11-20T05:10:16;4.95;;;2.88;;
56413;SDS011;42318;48.452;19.526;2022-11-20T05:17:50;5.07;;;3.47;;
56413;SDS011;42318;48.452;19.526;2022-11-20T05:25:22;4.88;;;3.28;;
56413;SDS011;42318;48.452;19.526;2022-11-20T05:32:52;5.18;;;3.20;;
56413;SDS011;42318;48.452;19.526;2022-11-20T05:40:23;4.50;;;2.85;;
56413;SDS011;42318;48.452;19.526;2022-11-20T05:47:57;4.00;;;2.70;;
56413;SDS011;42318;48.452;19.526;2022-11-20T05:55:29;4.88;;;2.88;;
56413;SDS011;42318;48.452;19.526;2022-11-20T06:03:00;4.70;;;3.10;;
56413;SDS011;42318;48.452;19.526;2022-11-20T06:10:31;4.57;;;3.08;;
56413;SDS011;42318;48.452;19.526;2022-11-20T06:18:02;6.15;;;3.17;;
56413;SDS011;42318;48.452;19.526;2022-11-20T06:25:36;4.53;;;2.92;;
56413;SDS011;42318;48.452;19.526;2022-11-20T06:33:08;4.68;;;2.92;;
56413;SDS011;42318;48.452;19.526;2022-11-20T06:40:41;4.93;;;2.70;;
56413;SDS011;42318;48.452;19.526;2022-11-20T06:48:13;5.15;;;3.08;;
56413;SDS011;42318;48.452;19.526;2022-11-20T06:55:44;5.15;;;3.20;;
56413;SDS011;42318;48.452;19.526;2022-11-20T07:03:16;4.38;;;3.13;;
56413;SDS011;42318;48.452;19.526;2022-11-20T07:10:47;5.18;;;3.17;;
56413;SDS011;42318;48.452;19.526;2022-11-20T07:18:17;5.78;;;2.80;;
56413;SDS011;42318;48.452;19.526;2022-11-20T07:25:48;4.63;;;2.90;;
56413;SDS011;42318;48.452;19.526;2022-11-20T07:33:19;5.30;;;3.55;;
56413;SDS011;42318;48.452;19.526;2022-11-20T07:40:53;4.50;;;3.08;;
56413;SDS011;42318;48.452;19.526;2022-11-20T07:48:25;6.25;;;3.88;;
56413;SDS011;42318;48.452;19.526;2022-11-20T07:55:59;4.75;;;3.20;;
56413;SDS011;42318;48.452;19.526;2022-11-20T08:03:30;5.57;;;3.20;;
56413;SDS011;42318;48.452;19.526;2022-11-20T08:11:01;4.30;;;2.90;;
56413;SDS011;42318;48.452;19.526;2022-11-20T08:18:50;5.45;;;3.38;;
56413;SDS011;42318;48.452;19.526;2022-11-20T08:26:21;5.30;;;3.33;;
56413;SDS011;42318;48.452;19.526;2022-11-20T08:33:53;5.32;;;3.40;;
56413;SDS011;42318;48.452;19.526;2022-11-20T08:41:24;5.05;;;3.13;;
56413;SDS011;42318;48.452;19.526;2022-11-20T08:48:58;5.55;;;3.35;;
56413;SDS011;42318;48.452;19.526;2022-11-20T08:56:28;6.18;;;3.65;;
56413;SDS011;42318;48.452;19.526;2022-11-20T09:03:59;7.40;;;3.83;;
56413;SDS011;42318;48.452;19.526;2022-11-20T09:11:31;5.03;;;3.30;;
56413;SDS011;42318;48.452;19.526;2022-11-20T09:19:02;5.38;;;3.20;;
56413;SDS011;42318;48.452;19.526;2022-11-20T09:26:32;5.88;;;3.65;;
56413;SDS011;42318;48.452;19.526;2022-11-20T09:34:03;5.40;;;3.65;;
56413;SDS011;42318;48.452;19.526;2022-11-20T09:41:56;5.35;;;3.33;;
56413;SDS011;42318;48.452;19.526;2022-11-20T09:57:34;6.03;;;3.15;;
56413;SDS011;42318;48.452;19.526;2022-11-20T10:13:02;6.68;;;3.58;;
56413;SDS011;42318;48.452;19.526;2022-11-20T10:43:47;5.55;;;3.03;;
56413;SDS011;42318;48.452;19.526;2022-11-20T11:07:35;5.93;;;3.33;;
56413;SDS011;42318;48.452;19.526;2022-11-20T11:15:25;5.22;;;3.00;;
56413;SDS011;42318;48.452;19.526;2022-11-20T11:22:56;5.50;;;3.30;;
56413;SDS011;42318;48.452;19.526;2022-11-20T11:30:29;7.18;;;4.03;;
56413;SDS011;42318;48.452;19.526;2022-11-20T11:38:03;5.55;;;3.47;;
56413;SDS011;42318;48.452;19.526;2022-11-20T11:45:37;6.40;;;3.25;;
56413;SDS011;42318;48.452;19.526;2022-11-20T11:53:09;5.93;;;3.30;;
56413;SDS011;42318;48.452;19.526;2022-11-20T12:00:57;7.30;;;3.65;;
56413;SDS011;42318;48.452;19.526;2022-11-20T12:08:35;5.32;;;3.08;;
56413;SDS011;42318;48.452;19.526;2022-11-20T12:16:12;8.63;;;3.70;;
56413;SDS011;42318;48.452;19.526;2022-11-20T12:31:40;5.88;;;3.78;;
56413;SDS011;42318;48.452;19.526;2022-11-20T12:46:46;9.07;;;4.97;;
56413;SDS011;42318;48.452;19.526;2022-11-20T13:10:46;14.00;;;7.93;;
56413;SDS011;42318;48.452;19.526;2022-11-20T13:18:22;15.52;;;8.00;;
56413;SDS011;42318;48.452;19.526;2022-11-20T13:26:05;13.55;;;8.85;;
56413;SDS011;42318;48.452;19.526;2022-11-20T13:33:44;15.38;;;9.43;;
56413;SDS011;42318;48.452;19.526;2022-11-20T13:48:58;15.23;;;9.13;;
56413;SDS011;42318;48.452;19.526;2022-11-20T14:04:21;16.85;;;9.05;;
56413;SDS011;42318;48.452;19.526;2022-11-20T14:12:03;13.73;;;8.07;;
56413;SDS011;42318;48.452;19.526;2022-11-20T14:19:45;15.07;;;8.13;;
56413;SDS011;42318;48.452;19.526;2022-11-20T14:27:18;15.13;;;8.15;;
56413;SDS011;42318;48.452;19.526;2022-11-20T14:34:51;18.27;;;8.05;;
56413;SDS011;42318;48.452;19.526;2022-11-20T14:42:23;15.05;;;7.78;;
56413;SDS011;42318;48.452;19.526;2022-11-20T14:49:55;15.15;;;7.90;;
56413;SDS011;42318;48.452;19.526;2022-11-20T14:57:29;14.57;;;7.78;;
56413;SDS011;42318;48.452;19.526;2022-11-20T15:05:01;14.30;;;7.38;;
56413;SDS011;42318;48.452;19.526;2022-11-20T15:12:34;9.50;;;6.55;;
56413;SDS011;42318;48.452;19.526;2022-11-20T15:20:11;13.10;;;7.28;;
56413;SDS011;42318;48.452;19.526;2022-11-20T15:27:45;13.27;;;6.57;;
56413;SDS011;42318;48.452;19.526;2022-11-20T15:35:20;10.30;;;6.32;;
56413;SDS011;42318;48.452;19.526;2022-11-20T15:42:51;11.05;;;7.00;;
56413;SDS011;42318;48.452;19.526;2022-11-20T15:58:07;11.13;;;5.77;;
56413;SDS011;42318;48.452;19.526;2022-11-20T16:05:38;8.40;;;5.25;;
56413;SDS011;42318;48.452;19.526;2022-11-20T16:13:16;8.60;;;5.05;;
56413;SDS011;42318;48.452;19.526;2022-11-20T16:21:10;9.02;;;5.18;;
56413;SDS011;42318;48.452;19.526;2022-11-20T16:28:43;11.05;;;5.95;;
56413;SDS011;42318;48.452;19.526;2022-11-20T16:36:14;10.10;;;5.30;;
56413;SDS011;42318;48.452;19.526;2022-11-20T16:43:46;8.07;;;4.80;;
56413;SDS011;42318;48.452;19.526;2022-11-20T16:51:18;11.90;;;5.13;;
56413;SDS011;42318;48.452;19.526;2022-11-20T16:58:49;9.43;;;4.78;;
56413;SDS011;42318;48.452;19.526;2022-11-20T17:06:21;8.75;;;4.38;;
56413;SDS011;42318;48.452;19.526;2022-11-20T17:13:54;7.55;;;4.20;;
56413;SDS011;42318;48.452;19.526;2022-11-20T17:21:27;9.00;;;4.30;;
56413;SDS011;42318;48.452;19.526;2022-11-20T17:29:00;8.80;;;4.70;;
56413;SDS011;42318;48.452;19.526;2022-11-20T17:36:33;6.82;;;4.43;;
56413;SDS011;42318;48.452;19.526;2022-11-20T17:44:04;7.47;;;3.97;;
56413;SDS011;42318;48.452;19.526;2022-11-20T17:51:35;9.65;;;4.13;;
56413;SDS011;42318;48.452;19.526;2022-11-20T17:59:09;10.73;;;4.25;;
56413;SDS011;42318;48.452;19.526;2022-11-20T18:14:13;6.55;;;3.83;;
56413;SDS011;42318;48.452;19.526;2022-11-20T18:22:01;5.70;;;3.47;;
56413;SDS011;42318;48.452;19.526;2022-11-20T18:37:05;10.00;;;5.55;;
56413;SDS011;42318;48.452;19.526;2022-11-20T18:44:35;7.68;;;4.55;;
56413;SDS011;42318;48.452;19.526;2022-11-20T18:52:24;7.53;;;4.55;;
56413;SDS011;42318;48.452;19.526;2022-11-20T18:59:57;7.63;;;4.45;;
56413;SDS011;42318;48.452;19.526;2022-11-20T19:07:29;7.22;;;3.95;;
56413;SDS011;42318;48.452;19.526;2022-11-20T19:15:00;9.73;;;3.97;;
56413;SDS011;42318;48.452;19.526;2022-11-20T19:22:31;9.23;;;5.68;;
56413;SDS011;42318;48.452;19.526;2022-11-20T19:30:02;9.57;;;4.90;;
56413;SDS011;42318;48.452;19.526;2022-11-20T19:37:33;9.60;;;4.55;;
56413;SDS011;42318;48.452;19.526;2022-11-20T19:45:04;9.65;;;4.65;;
56413;SDS011;42318;48.452;19.526;2022-11-20T19:52:35;8.35;;;4.35;;
56413;SDS011;42318;48.452;19.526;2022-11-20T20:00:06;6.85;;;4.45;;
56413;SDS011;42318;48.452;19.526;2022-11-20T20:07:38;6.20;;;4.10;;
56413;SDS011;42318;48.452;19.526;2022-11-20T20:15:09;8.60;;;3.85;;
56413;SDS011;42318;48.452;19.526;2022-11-20T20:22:40;6.80;;;3.78;;
56413;SDS011;42318;48.452;19.526;2022-11-20T20:30:11;7.35;;;4.30;;
56413;SDS011;42318;48.452;19.526;2022-11-20T20:37:42;8.73;;;4.03;;
56413;SDS011;42318;48.452;19.526;2022-11-20T20:45:13;7.68;;;3.78;;
56413;SDS011;42318;48.452;19.526;2022-11-20T20:52:43;7.13;;;4.30;;
56413;SDS011;42318;48.452;19.526;2022-11-20T21:00:14;7.78;;;3.85;;
56413;SDS011;42318;48.452;19.526;2022-11-20T21:07:45;6.70;;;4.53;;
56413;SDS011;42318;48.452;19.526;2022-11-20T21:15:37;5.97;;;3.60;;
56413;SDS011;42318;48.452;19.526;2022-11-20T21:23:08;6.82;;;4.90;;
56413;SDS011;42318;48.452;19.526;2022-11-20T21:30:40;6.80;;;4.10;;
56413;SDS011;42318;48.452;19.526;2022-11-20T21:38:10;7.35;;;3.60;;
56413;SDS011;42318;48.452;19.526;2022-11-20T21:45:41;6.70;;;4.00;;
56413;SDS011;42318;48.452;19.526;2022-11-20T21:53:12;5.78;;;3.67;;
56413;SDS011;42318;48.452;19.526;2022-11-20T22:00:42;5.75;;;3.85;;
56413;SDS011;42318;48.452;19.526;2022-11-20T22:08:13;6.38;;;3.70;;
56413;SDS011;42318;48.452;19.526;2022-11-20T22:15:44;6.10;;;3.85;;
56413;SDS011;42318;48.452;19.526;2022-11-20T22:23:15;6.85;;;3.70;;
56413;SDS011;42318;48.452;19.526;2022-11-20T22:30:46;5.97;;;4.03;;
56413;SDS011;42318;48.452;19.526;2022-11-20T22:38:16;6.63;;;3.83;;
56413;SDS011;42318;48.452;19.526;2022-11-20T22:45:47;6.40;;;3.75;;
56413;SDS011;42318;48.452;19.526;2022-11-20T22:53:18;6.63;;;3.38;;
56413;SDS011;42318;48.452;19.526;2022-11-20T23:00:49;5.80;;;3.30;;
56413;SDS011;42318;48.452;19.526;2022-11-20T23:08:20;7.35;;;3.83;;
56413;SDS011;42318;48.452;19.526;2022-11-20T23:15:50;6.97;;;3.92;;
56413;SDS011;42318;48.452;19.526;2022-11-20T23:23:21;5.55;;;3.22;;
56413;SDS011;42318;48.452;19.526;2022-11-20T23:30:52;5.63;;;3.45;;
56413;SDS011;42318;48.452;19.526;2022-11-20T23:38:23;6.78;;;3.78;;
56413;SDS011;42318;48.452;19.526;2022-11-20T23:45:55;5.05;;;3.47;;
56413;SDS011;42318;48.452;19.526;2022-11-20T23:53:27;6.05;;;3.45;;
